This is the latest recevied weather packets stored in our database for station/object IZ8GMP-13. If no packets are shown the sender has not sent any weather packets the latest 10 day(s).
| Time | Temp. | Humidity | Pressure | Rain* | Wind** | Luminosity | Snow |
|---|---|---|---|---|---|---|---|
| 1788479988 | 27.78° C | 65% | 1016.1 hPa | - | - | - | - |
| 1788477582 | 27.78° C | 65% | 1016.4 hPa | - | - | - | - |
| 1788476378 | 28.33° C | 63% | 1016.4 hPa | - | - | - | - |
| 1788475175 | 28.33° C | 62% | 1016.3 hPa | - | - | - | - |
| 1788473971 | 28.33° C | 60% | 1016.3 hPa | - | - | - | - |
| 1788472768 | 28.33° C | 59% | 1016.3 hPa | - | - | - | - |
| 1788471564 | 28.33° C | 57% | 1016.3 hPa | - | - | - | - |
| 1788470361 | 28.89° C | 54% | 1016.4 hPa | - | - | - | - |
| 1788467954 | 28.89° C | 54% | 1016.4 hPa | - | - | - | - |
| 1788466750 | 28.89° C | 55% | 1016.2 hPa | - | - | - | - |
| 1788465547 | 28.89° C | 53% | 1016.3 hPa | - | - | - | - |
| 1788464343 | 28.89° C | 51% | 1016.4 hPa | - | - | - | - |
| 1788463140 | 28.89° C | 51% | 1016.2 hPa | - | - | - | - |
| 1788461936 | 28.89° C | 52% | 1016.1 hPa | - | - | - | - |
| 1788460732 | 28.89° C | 55% | 1015.9 hPa | - | - | - | - |
| 1788459528 | 28.89° C | 58% | 1015.6 hPa | - | - | - | - |
| 1788458324 | 28.89° C | 59% | 1015.3 hPa | - | - | - | - |
| 1788457121 | 28.89° C | 59% | 1015.2 hPa | - | - | - | - |
| 1788455916 | 28.89° C | 59% | 1015.1 hPa | - | - | - | - |
| 1788454712 | 28.89° C | 60% | 1015 hPa | - | - | - | - |
| 1788453509 | 30° C | 57% | 1014.8 hPa | - | - | - | - |
| 1788452305 | 30° C | 57% | 1014.8 hPa | - | - | - | - |
| 1788449897 | 30° C | 57% | 1014.9 hPa | - | - | - | - |
| 1788448693 | 30° C | 57% | 1015 hPa | - | - | - | - |
| 1788447489 | 30° C | 58% | 1014.7 hPa | - | - | - | - |
* Rain since midnight (hover to see other rain measurements)
** Current wind speed in m/s (hover to see current wind gust speed)